createdAt,value
2023-04-29T00:00:14.172Z,11.63
2023-04-29T00:02:40.715Z,14.93
2023-04-29T00:05:07.661Z,9.02
2023-04-29T00:07:34.507Z,11.23
2023-04-29T00:10:01.167Z,12.48
2023-04-29T00:12:28.627Z,16.33
2023-04-29T00:14:55.283Z,11.77
2023-04-29T00:17:21.828Z,17.77
2023-04-29T00:23:09.985Z,14.93
2023-04-29T00:25:38.356Z,13.73
2023-04-29T00:28:05.843Z,13.25
2023-04-29T00:30:35.578Z,13.77
2023-04-29T00:33:02.109Z,15.40
2023-04-29T00:35:28.651Z,11.35
2023-04-29T00:37:55.210Z,13.38
2023-04-29T00:40:22.009Z,12.85
2023-04-29T00:42:48.499Z,12.50
2023-04-29T00:45:14.941Z,12.57
2023-04-29T00:47:42.034Z,12.00
2023-04-29T00:50:09.003Z,12.15
2023-04-29T00:52:35.860Z,16.77
2023-04-29T00:55:02.717Z,12.60
2023-04-29T00:57:30.073Z,12.75
2023-04-29T00:59:57.730Z,13.68
2023-04-29T01:02:25.629Z,9.20
2023-04-29T01:04:52.376Z,11.25
2023-04-29T01:07:21.736Z,12.27
2023-04-29T01:10:07.357Z,8.63
2023-04-29T01:12:38.959Z,7.70
2023-04-29T01:15:08.584Z,7.88
2023-04-29T01:17:43.504Z,10.10
2023-04-29T01:20:10.558Z,10.75
2023-04-29T01:22:39.287Z,9.50
2023-04-29T01:25:06.487Z,7.10
2023-04-29T01:27:42.107Z,8.90
2023-04-29T01:30:11.731Z,11.10
2023-04-29T01:32:46.873Z,6.15
2023-04-29T01:35:46.618Z,9.73
2023-04-29T01:38:32.234Z,6.53
2023-04-29T01:41:17.432Z,8.38
2023-04-29T01:43:47.080Z,8.85
2023-04-29T01:46:16.496Z,12.18
2023-04-29T01:48:43.663Z,10.75
2023-04-29T01:51:11.768Z,7.63
2023-04-29T01:53:40.444Z,9.15
2023-04-29T01:56:07.742Z,7.32
2023-04-29T01:58:34.227Z,7.63
2023-04-29T02:01:00.725Z,9.77
2023-04-29T02:03:27.249Z,7.20
2023-04-29T02:05:53.818Z,6.60
2023-04-29T02:08:20.276Z,9.13
2023-04-29T02:10:53.984Z,8.05
2023-04-29T02:13:20.583Z,7.57
2023-04-29T02:15:47.036Z,11.48
2023-04-29T02:18:14.123Z,10.25
2023-04-29T02:20:40.642Z,7.90
2023-04-29T02:23:07.260Z,10.15
2023-04-29T02:25:33.686Z,10.38
2023-04-29T02:28:00.205Z,12.77
2023-04-29T02:30:26.703Z,8.43
2023-04-29T02:32:53.298Z,9.60
2023-04-29T02:35:19.772Z,10.60
2023-04-29T02:37:46.699Z,11.40
2023-04-29T02:40:13.282Z,9.68
2023-04-29T02:42:39.823Z,8.93
2023-04-29T02:45:06.683Z,13.77
2023-04-29T02:47:33.281Z,11.00
2023-04-29T02:49:59.802Z,10.00
2023-04-29T02:52:26.249Z,12.18
2023-04-29T02:54:52.621Z,10.00
2023-04-29T02:57:19.141Z,8.43
2023-04-29T02:59:45.684Z,8.82
2023-04-29T03:02:12.774Z,10.63
2023-04-29T03:04:40.187Z,9.77
2023-04-29T03:07:08.046Z,10.63
2023-04-29T03:09:34.554Z,9.65
2023-04-29T03:12:01.277Z,9.27
2023-04-29T03:14:28.147Z,8.00
2023-04-29T03:16:56.534Z,13.45
2023-04-29T03:19:23.149Z,8.43
2023-04-29T03:21:52.050Z,7.53
2023-04-29T03:24:20.163Z,11.52
2023-04-29T03:26:46.577Z,15.93
2023-04-29T03:29:13.054Z,11.27
2023-04-29T03:31:39.532Z,14.30
2023-04-29T03:34:05.974Z,13.20
2023-04-29T03:36:32.402Z,13.15
2023-04-29T03:38:58.824Z,9.75
2023-04-29T03:41:25.353Z,10.25
2023-04-29T03:43:51.902Z,14.95
2023-04-29T03:46:18.470Z,13.27
2023-04-29T03:48:44.895Z,17.67
2023-04-29T03:51:11.582Z,10.05
2023-04-29T03:53:38.085Z,15.80
2023-04-29T03:56:04.840Z,13.18
2023-04-29T03:58:31.398Z,10.75
2023-04-29T04:00:57.844Z,17.45
2023-04-29T04:03:26.085Z,21.15
2023-04-29T04:05:52.598Z,17.88
2023-04-29T04:08:19.090Z,15.20
2023-04-29T04:10:45.576Z,16.50
2023-04-29T04:13:12.014Z,17.95
2023-04-29T04:15:38.537Z,23.35
2023-04-29T04:18:05.342Z,12.82
2023-04-29T04:20:31.828Z,11.85
2023-04-29T04:22:58.279Z,14.95
2023-04-29T04:25:24.737Z,17.45
2023-04-29T04:27:51.218Z,20.48
2023-04-29T04:30:17.679Z,18.40
2023-04-29T04:32:44.720Z,22.08
2023-04-29T04:35:11.248Z,24.92
2023-04-29T04:37:37.697Z,22.27
2023-04-29T04:40:04.450Z,22.75
2023-04-29T04:42:30.945Z,23.40
2023-04-29T04:44:57.437Z,24.13
2023-04-29T04:47:23.994Z,26.25
2023-04-29T04:49:50.496Z,25.38
2023-04-29T04:52:19.617Z,19.58
2023-04-29T04:54:46.619Z,25.20
2023-04-29T04:57:13.181Z,25.85
2023-04-29T04:59:39.743Z,32.03
2023-04-29T05:02:06.211Z,25.13
2023-04-29T05:04:32.779Z,23.38
2023-04-29T05:07:01.989Z,25.17
2023-04-29T05:09:29.481Z,31.85
2023-04-29T05:12:00.318Z,26.98
2023-04-29T05:14:28.420Z,24.98
2023-04-29T05:16:58.619Z,25.95
2023-04-29T05:19:25.060Z,27.67
2023-04-29T05:21:52.074Z,27.08
2023-04-29T05:24:18.655Z,25.48
2023-04-29T05:26:45.303Z,31.92
2023-04-29T05:29:12.274Z,27.45
2023-04-29T05:31:38.927Z,26.52
2023-04-29T05:34:05.820Z,24.48
2023-04-29T05:36:32.553Z,24.27
2023-04-29T05:38:59.254Z,28.55
2023-04-29T05:41:25.799Z,26.38
2023-04-29T05:43:52.221Z,23.88
2023-04-29T05:46:20.615Z,20.30
2023-04-29T05:48:48.549Z,25.73
2023-04-29T05:51:16.452Z,29.15
2023-04-29T05:53:44.370Z,19.10
2023-04-29T05:56:12.003Z,20.77
2023-04-29T05:58:39.592Z,20.30
2023-04-29T06:01:07.460Z,18.77
2023-04-29T06:03:35.980Z,18.02
2023-04-29T06:06:04.144Z,18.23
2023-04-29T06:08:30.884Z,19.85
2023-04-29T06:10:58.662Z,13.60
2023-04-29T06:13:26.653Z,16.08
2023-04-29T06:15:53.123Z,18.02
2023-04-29T06:18:21.817Z,11.90
2023-04-29T06:20:49.893Z,17.80
2023-04-29T06:23:16.352Z,18.08
2023-04-29T06:25:43.001Z,21.15
2023-04-29T06:28:09.536Z,21.80
2023-04-29T06:30:36.050Z,17.13
2023-04-29T06:33:02.788Z,15.68
2023-04-29T06:35:29.414Z,13.98
2023-04-29T06:37:56.765Z,21.85
2023-04-29T06:40:23.441Z,17.17
2023-04-29T06:42:50.330Z,13.05
2023-04-29T06:45:16.780Z,19.73
2023-04-29T06:47:44.104Z,14.02
2023-04-29T06:50:10.830Z,15.98
2023-04-29T06:52:37.341Z,14.73
2023-04-29T06:55:03.892Z,15.82
2023-04-29T06:57:30.428Z,15.85
2023-04-29T06:59:56.882Z,14.77
2023-04-29T07:02:23.331Z,19.20
2023-04-29T07:04:51.016Z,16.20
2023-04-29T07:07:17.591Z,20.17
2023-04-29T07:09:44.098Z,22.42
2023-04-29T07:12:10.690Z,16.70
2023-04-29T07:14:37.591Z,18.35
2023-04-29T07:17:04.151Z,17.52
2023-04-29T07:24:25.489Z,12.48
2023-04-29T07:26:51.975Z,10.35
2023-04-29T07:29:18.459Z,9.60
2023-04-29T07:31:45.138Z,15.80
2023-04-29T07:34:11.900Z,17.83
2023-04-29T07:36:38.445Z,12.23
2023-04-29T07:39:05.143Z,13.60
2023-04-29T07:41:31.578Z,16.20
2023-04-29T17:44:28.850Z,12.50
2023-04-29T17:51:49.228Z,11.10
2023-04-29T17:54:15.715Z,19.35
2023-04-29T17:56:42.312Z,22.33
2023-04-29T17:59:08.811Z,22.15
2023-04-29T18:01:35.777Z,18.60
2023-04-29T18:04:02.446Z,15.10
2023-04-29T18:06:30.467Z,17.30
2023-04-29T18:08:57.071Z,14.48
2023-04-29T18:11:23.616Z,11.70
2023-04-29T18:13:52.705Z,10.77
2023-04-29T18:16:19.246Z,8.75
2023-04-29T18:18:46.288Z,11.70
2023-04-29T18:21:12.857Z,10.13
2023-04-29T18:23:40.728Z,18.83
2023-04-29T18:26:08.391Z,12.57
2023-04-29T18:28:37.677Z,6.13
2023-04-29T18:31:04.167Z,11.65
2023-04-29T18:33:31.472Z,11.95
2023-04-29T18:35:58.065Z,13.00
2023-04-29T18:38:25.070Z,16.50
2023-04-29T18:40:51.591Z,15.35
2023-04-29T18:43:22.338Z,16.90
2023-04-29T18:45:48.906Z,15.05
2023-04-29T18:48:15.506Z,9.23
2023-04-29T18:50:42.079Z,9.20
2023-04-29T18:53:08.709Z,7.90
2023-04-29T18:55:35.997Z,9.82
2023-04-29T18:58:02.753Z,12.02
2023-04-29T19:00:29.718Z,11.77
2023-04-29T19:02:56.643Z,11.60
2023-04-29T19:05:23.265Z,17.40
2023-04-29T19:07:49.880Z,18.75
2023-04-29T19:10:16.420Z,17.50
2023-04-29T19:12:42.951Z,17.75
2023-04-29T19:15:09.785Z,18.45
2023-04-29T19:17:36.448Z,18.65
2023-04-29T19:20:04.723Z,25.10
2023-04-29T19:22:31.489Z,22.83
2023-04-29T19:24:57.990Z,20.83
2023-04-29T19:27:24.442Z,23.35
2023-04-29T19:29:51.271Z,20.92
2023-04-29T19:32:19.745Z,19.00
2023-04-29T19:34:47.071Z,18.00
2023-04-29T19:37:13.897Z,18.42
2023-04-29T19:39:40.415Z,14.77
2023-04-29T19:42:07.165Z,16.23
2023-04-29T19:44:33.601Z,10.70
2023-04-29T19:47:00.134Z,12.90
2023-04-29T19:49:26.609Z,10.32
2023-04-29T19:51:53.960Z,13.23
2023-04-29T19:54:20.530Z,13.25
2023-04-29T19:56:47.082Z,10.32
2023-04-29T19:59:13.579Z,9.73
2023-04-29T20:01:40.150Z,8.55
2023-04-29T20:04:06.658Z,10.07
2023-04-29T20:06:35.041Z,12.50
2023-04-29T20:09:01.840Z,14.63
2023-04-29T20:11:28.317Z,11.00
2023-04-29T20:13:54.846Z,9.18
2023-04-29T20:16:23.309Z,10.20
2023-04-29T20:18:49.968Z,10.40
2023-04-29T20:21:16.466Z,13.13
2023-04-29T20:23:42.861Z,15.13
2023-04-29T20:26:09.299Z,8.68
2023-04-29T20:28:35.709Z,12.05
2023-04-29T20:31:02.256Z,10.15
2023-04-29T20:33:28.823Z,10.82
2023-04-29T20:35:57.082Z,11.18
2023-04-29T20:38:24.758Z,10.93
2023-04-29T20:40:54.418Z,14.20
2023-04-29T20:43:21.067Z,12.57
2023-04-29T20:45:47.620Z,8.60
2023-04-29T20:48:14.239Z,9.07
2023-04-29T20:50:41.045Z,16.88
2023-04-29T20:53:07.696Z,9.05
2023-04-29T20:55:34.146Z,9.68
2023-04-29T20:58:00.681Z,14.55
2023-04-29T21:00:27.247Z,9.88
2023-04-29T21:02:53.798Z,16.10
2023-04-29T21:05:21.131Z,13.90
2023-04-29T21:07:49.265Z,9.63
2023-04-29T21:10:15.788Z,11.93
2023-04-29T21:12:42.320Z,13.23
2023-04-29T21:15:08.993Z,9.68
2023-04-29T21:17:35.498Z,13.48
2023-04-29T21:20:01.980Z,14.30
2023-04-29T21:22:28.481Z,13.50
2023-04-29T21:24:55.119Z,11.40
2023-04-29T21:27:21.704Z,10.63
2023-04-29T21:29:48.244Z,17.60
2023-04-29T21:32:18.262Z,11.40
2023-04-29T21:34:44.790Z,11.57
2023-04-29T21:37:11.217Z,13.20
2023-04-29T21:39:37.697Z,11.82
2023-04-29T21:42:04.154Z,15.35
2023-04-29T21:44:31.819Z,19.83
2023-04-29T21:46:59.836Z,14.73
2023-04-29T21:49:27.524Z,13.20
2023-04-29T21:51:54.741Z,19.00
2023-04-29T21:54:21.194Z,11.50
2023-04-29T21:56:47.833Z,14.07
2023-04-29T21:59:14.295Z,14.65
2023-04-29T22:01:48.761Z,11.98
2023-04-29T22:04:19.122Z,10.27
2023-04-29T22:06:45.910Z,9.23
2023-04-29T22:09:12.553Z,9.82
2023-04-29T22:11:39.172Z,12.85
2023-04-29T22:14:05.730Z,13.25
2023-04-29T22:16:32.375Z,14.98
2023-04-29T22:18:58.889Z,13.13
2023-04-29T22:21:25.405Z,11.88
2023-04-29T22:23:51.999Z,12.15
2023-04-29T22:26:18.809Z,10.07
2023-04-29T22:28:45.333Z,9.15
2023-04-29T22:31:11.877Z,11.18
2023-04-29T22:33:38.422Z,13.27
2023-04-29T22:36:05.401Z,9.75
2023-04-29T22:38:31.875Z,12.07
2023-04-29T22:40:58.441Z,15.02
2023-04-29T22:43:25.003Z,16.02
2023-04-29T22:45:52.531Z,15.73
2023-04-29T22:48:19.097Z,12.57
2023-04-29T22:50:51.791Z,14.20
2023-04-29T22:53:18.414Z,13.52
2023-04-29T22:55:54.783Z,10.13
2023-04-29T22:58:21.889Z,13.77
2023-04-29T23:00:52.147Z,11.80
2023-04-29T23:03:18.804Z,14.27
2023-04-29T23:05:45.833Z,13.07
2023-04-29T23:08:12.524Z,14.45
2023-04-29T23:10:39.461Z,13.85
2023-04-29T23:13:06.268Z,9.27
2023-04-29T23:15:32.770Z,11.32
2023-04-29T23:17:59.388Z,10.77
2023-04-29T23:20:26.052Z,13.27
2023-04-29T23:22:52.604Z,11.63
2023-04-29T23:25:19.235Z,8.88
2023-04-29T23:27:45.667Z,10.50
2023-04-29T23:30:12.255Z,8.35
2023-04-29T23:32:38.794Z,7.00
2023-04-29T23:35:05.529Z,9.98
2023-04-29T23:37:32.039Z,12.55
2023-04-29T23:39:58.762Z,6.10
2023-04-29T23:42:27.338Z,10.10
2023-04-29T23:44:53.847Z,9.73
2023-04-29T23:47:20.474Z,8.68
2023-04-29T23:49:47.306Z,8.43
2023-04-29T23:52:13.789Z,8.65
2023-04-29T23:54:40.383Z,8.20
2023-04-29T23:57:07.217Z,7.82
2023-04-29T23:59:33.773Z,7.15
